Time;durP1;ratioP1;P1;durP2;ratioP2;P2;SDS_P1;SDS_P2;PMS_P1;PMS_P2;Temp;Humidity;BMP_temperature;BMP_pressure;BME280_temperature;BME280_humidity;BME280_pressure;Samples;Min_cycle;Max_cycle;Signal;HPM_P1;HPM_P2
2022/08/12 11:25:42;;;;;;;;;18.75;15.00;;;27.59;97715.95;;;;117498;1206;23277;-71
2022/08/12 11:28:26;;;;;;;;;15.25;14.25;;;28.08;97714.80;;;;118869;1190;26400;-68
2022/08/12 11:32:40;;;;;;;;;17.50;12.75;;;28.43;97721.94;;;;117508;1205;23235;-68
2022/08/12 11:35:13;;;;;;;;;13.00;11.25;;;28.47;97724.26;;;;118538;1193;24978;-73
2022/08/12 11:37:43;;;;;;;;;13.25;12.00;;;28.44;97721.69;;;;118619;1193;25410;-72
2022/08/12 11:40:27;;;;;;;;;15.25;12.75;;;28.39;97717.27;;;;118571;1193;25675;-65
2022/08/12 11:42:56;;;;;;;;;10.00;9.25;;;28.41;97713.91;;;;118581;1193;24974;-66
2022/08/12 11:45:45;;;;;;;;;11.75;11.00;;;28.44;97713.98;;;;118584;1193;25756;-68
2022/08/12 11:48:14;;;;;;;;;10.75;9.00;;;28.49;97717.62;;;;118605;1193;25235;-64
2022/08/12 11:50:43;;;;;;;;;11.75;10.00;;;28.49;97715.20;;;;118577;1193;26317;-64
2022/08/12 11:53:11;;;;;;;;;8.00;7.25;;;28.51;97713.41;;;;118584;1193;24746;-74
2022/08/12 11:55:59;;;;;;;;;7.50;7.50;;;28.59;97709.39;;;;119018;1188;25229;-71
2022/08/12 11:58:27;;;;;;;;;9.75;7.50;;;28.66;97711.00;;;;119241;1187;24718;-71
2022/08/12 12:01:16;;;;;;;;;10.25;9.00;;;28.75;97706.80;;;;119265;1188;25025;-64
2022/08/12 12:04:03;;;;;;;;;11.67;10.33;;;28.73;97701.59;;;;118999;1190;25601;-63
2022/08/12 12:06:31;;;;;;;;;12.00;12.00;;;28.74;97700.86;;;;119019;1190;25409;-67
2022/08/12 12:08:59;;;;;;;;;7.75;7.50;;;28.72;97698.38;;;;119029;1188;24934;-68
2022/08/12 12:11:27;;;;;;;;;9.75;9.00;;;28.73;97698.14;;;;118999;1189;25804;-67
2022/08/12 12:14:15;;;;;;;;;8.75;8.75;;;28.71;97693.95;;;;118985;1189;26146;-64
2022/08/12 12:16:44;;;;;;;;;9.75;9.00;;;28.77;97689.78;;;;118984;1189;25441;-69
2022/08/12 12:19:17;;;;;;;;;8.00;8.00;;;28.76;97689.76;;;;118996;1190;26202;-66
2022/08/12 12:21:46;;;;;;;;;9.00;8.50;;;28.80;97688.75;;;;118986;1191;25575;-60
2022/08/12 12:24:17;;;;;;;;;8.00;8.00;;;28.80;97686.98;;;;118984;1189;25825;-62
2022/08/12 12:26:50;;;;;;;;;10.25;8.00;;;28.78;97682.77;;;;118982;1188;25234;-64
2022/08/12 12:29:29;;;;;;;;;5.25;5.25;;;28.79;97680.91;;;;118928;1189;25101;-63
2022/08/12 12:32:18;;;;;;;;;8.50;7.25;;;28.82;97678.39;;;;119043;1188;25673;-63
2022/08/12 12:34:56;;;;;;;;;8.75;8.25;;;28.96;97676.05;;;;118956;1190;25765;-63
2022/08/12 12:38:01;;;;;;;;;5.25;5.25;;;29.01;97672.33;;;;119018;1189;25373;-63
2022/08/12 12:40:41;;;;;;;;;7.50;6.75;;;29.15;97676.56;;;;119055;1188;26053;-63
2022/08/12 12:43:14;;;;;;;;;6.75;6.75;;;29.23;97680.65;;;;119085;1189;26562;-67
2022/08/12 12:45:43;;;;;;;;;9.00;5.33;;;29.20;97673.08;;;;119039;1190;26020;-66
2022/08/12 12:48:16;;;;;;;;;7.00;5.25;;;29.62;97664.61;;;;118997;1190;25381;-67
2022/08/12 12:50:46;;;;;;;;;88.00;61.67;;;29.87;97660.34;;;;119014;1190;26796;-69
2022/08/12 12:53:21;;;;;;;;;61.33;44.33;;;29.96;97653.05;;;;119035;1190;25185;-58
2022/08/12 12:56:19;;;;;;;;;42.50;32.00;;;30.13;97656.44;;;;119067;1189;25197;-72
2022/08/12 12:59:04;;;;;;;;;25.75;21.00;;;30.27;97656.80;;;;119042;1190;25514;-72
2022/08/12 13:01:36;;;;;;;;;16.50;14.75;;;30.27;97656.89;;;;119043;1190;25281;-72
2022/08/12 13:04:10;;;;;;;;;15.75;12.50;;;30.26;97655.02;;;;118996;1190;24802;-70
2022/08/12 13:06:40;;;;;;;;;11.25;7.50;;;30.26;97652.69;;;;119059;1190;26331;-69
2022/08/12 13:09:11;;;;;;;;;8.25;5.75;;;30.35;97651.45;;;;118919;1190;25275;-70
2022/08/12 13:11:41;;;;;;;;;7.00;5.00;;;30.36;97651.45;;;;119072;1190;25593;-67
2022/08/12 13:14:12;;;;;;;;;7.75;5.00;;;30.39;97649.51;;;;119084;1190;25394;-76
2022/08/12 13:17:01;;;;;;;;;4.25;4.25;;;30.52;97647.46;;;;118990;1190;25482;-71
2022/08/12 13:19:35;;;;;;;;;6.50;5.50;;;30.50;97640.67;;;;119034;1190;25165;-68
2022/08/12 13:22:18;;;;;;;;;7.50;6.00;;;30.53;97640.60;;;;119057;1190;25231;-73
2022/08/12 13:24:51;;;;;;;;;3.50;3.50;;;30.51;97639.61;;;;119009;1190;26432;-67
2022/08/12 13:27:28;;;;;;;;;5.00;4.00;;;30.54;97636.91;;;;119048;1190;25471;-76
2022/08/12 13:30:04;;;;;;;;;5.00;3.75;;;30.53;97632.77;;;;119040;1190;24837;-70
2022/08/12 13:32:49;;;;;;;;;6.50;5.50;;;30.56;97627.70;;;;119020;1188;25713;-75
2022/08/12 13:35:29;;;;;;;;;5.25;5.25;;;30.59;97628.75;;;;119017;1189;25387;-69
2022/08/12 13:38:17;;;;;;;;;5.00;5.00;;;30.73;97632.86;;;;119015;1189;25423;-68
2022/08/12 13:40:57;;;;;;;;;4.00;4.00;;;30.72;97628.06;;;;119070;1189;24819;-72
2022/08/12 13:43:25;;;;;;;;;5.25;4.75;;;30.72;97626.02;;;;119024;1190;24859;-72
2022/08/12 13:46:12;;;;;;;;;4.25;4.25;;;30.77;97624.91;;;;119013;1189;26294;-70
2022/08/12 13:48:41;;;;;;;;;5.75;4.75;;;30.77;97624.04;;;;119045;1189;25882;-68
2022/08/12 13:51:13;;;;;;;;;4.00;4.00;;;30.92;97623.35;;;;119062;1188;25573;-63
2022/08/12 13:53:51;;;;;;;;;4.75;3.75;;;30.98;97623.94;;;;119103;1190;25636;-64
2022/08/12 13:56:32;;;;;;;;;7.00;5.75;;;31.08;97621.13;;;;119054;1190;25608;-75
2022/08/12 13:59:04;;;;;;;;;5.50;5.50;;;31.15;97620.59;;;;118984;1189;25510;-65
2022/08/12 14:01:36;;;;;;;;;4.25;4.25;;;31.21;97616.02;;;;119067;1188;25312;-65
2022/08/12 14:04:08;;;;;;;;;10.25;8.50;;;31.17;97616.92;;;;119116;1189;24799;-62
2022/08/12 14:06:40;;;;;;;;;5.75;5.75;;;31.20;97621.86;;;;119113;1190;24888;-61
2022/08/12 14:09:10;;;;;;;;;8.00;8.00;;;31.19;97618.84;;;;119090;1189;25506;-61
2022/08/12 14:11:45;;;;;;;;;9.00;7.75;;;31.16;97615.88;;;;119096;1190;25570;-61
2022/08/12 14:14:27;;;;;;;;;12.25;8.25;;;31.18;97611.73;;;;119090;1189;25163;-60
2022/08/12 14:17:08;;;;;;;;;13.50;10.75;;;31.16;97614.11;;;;119079;1190;26410;-61
2022/08/12 14:20:11;;;;;;;;;10.25;8.25;;;31.11;97611.30;;;;119260;1188;24865;-61
2022/08/12 14:22:27;;;;;;;;;13.25;10.25;;;31.17;97607.70;;;;119230;1188;24936;-62
2022/08/12 14:25:15;;;;;;;;;10.00;9.50;;;31.17;97605.16;;;;119270;1187;25176;-61
2022/08/12 14:27:43;;;;;;;;;10.50;9.25;;;31.16;97597.84;;;;119253;1189;25109;-61
2022/08/12 14:30:31;;;;;;;;;14.25;11.00;;;31.18;97596.72;;;;119251;1187;25151;-61
2022/08/12 14:33:02;;;;;;;;;16.50;13.00;;;31.19;97588.58;;;;119093;1190;25034;-62
2022/08/12 14:35:36;;;;;;;;;9.50;8.00;;;31.15;97588.05;;;;119279;1188;25951;-62
2022/08/12 14:38:24;;;;;;;;;17.25;12.75;;;31.20;97585.89;;;;119152;1189;25017;-62
2022/08/12 14:40:58;;;;;;;;;15.50;12.50;;;31.19;97587.23;;;;119193;1188;26444;-61
2022/08/12 14:43:32;;;;;;;;;20.75;9.75;;;31.16;97590.46;;;;118995;1189;26034;-61
2022/08/12 14:46:22;;;;;;;;;13.50;12.00;;;31.19;97589.91;;;;119203;1188;25576;-62
2022/08/12 14:48:52;;;;;;;;;13.00;9.50;;;31.16;97587.34;;;;119107;1189;25744;-60
2022/08/12 14:51:22;;;;;;;;;18.00;12.75;;;31.14;97586.93;;;;119199;1187;25387;-61
2022/08/12 14:54:11;;;;;;;;;16.00;11.75;;;31.15;97582.67;;;;119170;1187;24774;-61
2022/08/12 14:56:58;;;;;;;;;13.25;10.00;;;31.17;97581.84;;;;119165;1188;25168;-62
2022/08/12 15:02:54;;;;;;;;;16.50;11.25;;;31.24;97572.81;;;;118916;1191;24918;-62
2022/08/12 15:05:22;;;;;;;;;14.00;11.00;;;31.21;97572.24;;;;118931;1191;25174;-62
2022/08/12 15:08:12;;;;;;;;;13.25;12.25;;;31.25;97573.79;;;;119069;1189;24767;-60
2022/08/12 15:10:49;;;;;;;;;15.00;10.75;;;31.25;97572.29;;;;119202;1188;25210;-62
2022/08/12 15:13:22;;;;;;;;;16.25;13.50;;;31.25;97572.70;;;;119217;1187;26335;-61
2022/08/12 15:15:51;;;;;;;;;11.67;10.67;;;31.24;97569.77;;;;119220;1189;25156;-59
2022/08/12 15:18:20;;;;;;;;;16.75;11.50;;;31.23;97569.48;;;;119191;1189;24957;-62
2022/08/12 15:20:51;;;;;;;;;20.00;13.00;;;31.22;97568.77;;;;119210;1187;25312;-61
2022/08/12 15:23:22;;;;;;;;;17.00;11.00;;;31.20;97568.16;;;;119083;1189;25510;-62
2022/08/12 15:25:57;;;;;;;;;13.25;12.00;;;31.16;97568.34;;;;119060;1188;25661;-61
2022/08/12 15:28:32;;;;;;;;;17.25;11.25;;;31.13;97567.84;;;;119065;1189;25103;-62
2022/08/12 15:31:01;;;;;;;;;11.25;10.25;;;31.11;97566.58;;;;119148;1188;25583;-62
2022/08/12 15:33:30;;;;;;;;;13.00;10.50;;;31.08;97568.52;;;;119176;1186;24787;-62
2022/08/12 15:36:14;;;;;;;;;12.50;9.00;;;31.09;97564.71;;;;119196;1188;26116;-62
2022/08/12 15:38:51;;;;;;;;;13.75;10.50;;;31.12;97563.72;;;;119203;1188;24907;-62
2022/08/12 15:41:21;;;;;;;;;14.00;8.75;;;31.07;97560.33;;;;119140;1189;24886;-62
2022/08/12 15:43:50;;;;;;;;;17.00;10.50;;;31.02;97564.50;;;;119146;1187;25723;-61
2022/08/12 15:46:37;;;;;;;;;12.00;10.25;;;31.04;97558.67;;;;119144;1189;24906;-61
2022/08/12 15:49:09;;;;;;;;;16.67;12.33;;;31.02;97556.43;;;;119151;1188;25159;-61
2022/08/12 15:51:43;;;;;;;;;12.00;10.50;;;30.98;97556.73;;;;119096;1189;24740;-61
2022/08/12 15:54:28;;;;;;;;;13.50;8.75;;;30.94;97554.47;;;;119166;1189;25585;-61
2022/08/12 15:57:04;;;;;;;;;16.25;11.00;;;30.95;97554.00;;;;119061;1190;25555;-60
2022/08/12 15:59:37;;;;;;;;;10.25;10.25;;;30.90;97551.55;;;;119065;1190;25199;-61
2022/08/12 16:02:25;;;;;;;;;8.75;7.75;;;30.91;97552.49;;;;119083;1188;24907;-61
2022/08/12 16:04:57;;;;;;;;;17.33;12.00;;;30.91;97551.56;;;;119111;1188;25657;-61
2022/08/12 16:07:25;;;;;;;;;18.00;12.50;;;30.86;97551.71;;;;119092;1188;25494;-61
2022/08/12 16:10:07;;;;;;;;;12.00;9.75;;;30.85;97547.28;;;;119164;1188;24714;-62
2022/08/12 16:12:40;;;;;;;;;11.50;9.00;;;30.84;97546.33;;;;119137;1189;25701;-60
2022/08/12 16:15:13;;;;;;;;;15.50;10.25;;;30.83;97545.73;;;;119149;1187;25753;-61
2022/08/12 16:17:45;;;;;;;;;12.25;10.50;;;30.82;97544.95;;;;119212;1188;25872;-61
2022/08/12 16:20:33;;;;;;;;;11.00;7.75;;;30.88;97544.66;;;;119233;1187;25374;-61
2022/08/12 16:23:12;;;;;;;;;9.25;8.00;;;30.84;97544.40;;;;119179;1188;25174;-61
2022/08/12 16:25:54;;;;;;;;;9.00;7.00;;;30.81;97542.05;;;;119192;1188;24759;-60
2022/08/12 16:28:44;;;;;;;;;11.75;10.25;;;30.83;97540.33;;;;119093;1187;25497;-60
2022/08/12 16:31:14;;;;;;;;;11.25;10.00;;;30.77;97539.83;;;;119240;1188;25578;-61
2022/08/12 16:33:51;;;;;;;;;12.75;11.75;;;30.78;97539.11;;;;119091;1188;24792;-62
2022/08/12 16:36:28;;;;;;;;;12.75;10.00;;;30.72;97539.86;;;;119069;1189;25784;-62
2022/08/12 16:38:56;;;;;;;;;8.25;8.00;;;30.67;97537.73;;;;119187;1187;24688;-62
2022/08/12 16:41:29;;;;;;;;;11.25;8.00;;;30.64;97537.88;;;;119197;1188;24870;-60
2022/08/12 16:44:07;;;;;;;;;9.00;8.75;;;30.64;97535.76;;;;119210;1188;25253;-61
2022/08/12 16:46:36;;;;;;;;;8.00;8.00;;;30.64;97533.42;;;;119185;1187;25194;-60
2022/08/12 16:49:05;;;;;;;;;13.00;10.25;;;30.58;97531.56;;;;119203;1189;25239;-61
2022/08/12 16:51:42;;;;;;;;;11.25;9.50;;;30.55;97529.42;;;;119261;1187;26439;-60
2022/08/12 16:54:14;;;;;;;;;10.00;8.25;;;30.59;97528.27;;;;119264;1188;25326;-62
2022/08/12 16:56:44;;;;;;;;;11.25;9.00;;;30.63;97525.91;;;;119189;1188;25809;-59
2022/08/12 16:59:25;;;;;;;;;9.75;9.50;;;30.67;97528.06;;;;119220;1186;25111;-61
2022/08/12 17:02:13;;;;;;;;;14.67;11.00;;;30.74;97528.20;;;;119191;1188;25152;-63
2022/08/12 17:05:03;;;;;;;;;10.75;8.75;;;30.74;97530.55;;;;119036;1188;25337;-65
2022/08/12 17:07:36;;;;;;;;;11.75;7.00;;;30.75;97533.98;;;;119240;1187;25019;-72
2022/08/12 17:10:15;;;;;;;;;10.00;9.75;;;30.82;97536.10;;;;119087;1188;25509;-62
2022/08/12 17:12:45;;;;;;;;;9.25;9.25;;;30.77;97540.75;;;;119055;1187;24789;-61
2022/08/12 17:15:13;;;;;;;;;8.75;7.75;;;30.61;97542.95;;;;119201;1188;25066;-68
2022/08/12 17:18:03;;;;;;;;;9.50;8.00;;;30.63;97541.13;;;;119199;1188;25091;-69
2022/08/12 17:20:50;;;;;;;;;11.00;10.00;;;30.68;97540.63;;;;119106;1189;25665;-63
2022/08/12 17:23:20;;;;;;;;;13.25;10.00;;;30.55;97539.64;;;;119206;1188;26141;-66
2022/08/12 17:25:50;;;;;;;;;11.67;11.67;;;30.48;97541.19;;;;119223;1186;25606;-68
2022/08/12 17:28:20;;;;;;;;;17.00;12.00;;;30.49;97542.70;;;;119204;1187;25037;-64
2022/08/12 17:30:49;;;;;;;;;14.25;12.75;;;30.46;97542.98;;;;119017;1190;24849;-66
2022/08/12 17:33:26;;;;;;;;;22.75;16.25;;;30.48;97547.33;;;;119100;1189;25051;-70
2022/08/12 17:36:04;;;;;;;;;14.00;10.67;;;30.53;97546.20;;;;119005;1189;24793;-66
2022/08/12 17:38:35;;;;;;;;;18.00;14.75;;;30.57;97550.59;;;;118985;1189;25723;-72
2022/08/12 17:41:06;;;;;;;;;16.75;14.75;;;30.53;97550.39;;;;119005;1188;25146;-68
2022/08/12 17:43:51;;;;;;;;;18.50;14.75;;;30.56;97550.13;;;;118971;1190;25487;-68
2022/08/12 17:46:30;;;;;;;;;16.75;14.25;;;30.54;97552.88;;;;118946;1190;25087;-69
2022/08/12 17:49:00;;;;;;;;;17.50;16.50;;;30.49;97551.43;;;;119042;1190;25766;-65
2022/08/12 17:51:49;;;;;;;;;16.25;12.00;;;30.52;97551.92;;;;119125;1189;25369;-66
2022/08/12 17:54:30;;;;;;;;;16.00;12.75;;;30.69;97552.41;;;;119097;1190;25638;-63
2022/08/12 17:56:59;;;;;;;;;14.00;13.25;;;30.76;97555.05;;;;119083;1190;25414;-63
2022/08/12 17:59:28;;;;;;;;;16.50;13.50;;;30.75;97553.99;;;;119042;1189;25320;-70
2022/08/12 18:02:16;;;;;;;;;11.25;10.25;;;30.85;97556.92;;;;119007;1189;24847;-68
2022/08/12 18:04:53;;;;;;;;;11.00;9.25;;;30.81;97557.83;;;;119063;1189;24793;-71
2022/08/12 18:07:37;;;;;;;;;12.00;11.50;;;30.86;97556.36;;;;119118;1190;26411;-71
2022/08/12 18:10:07;;;;;;;;;15.00;11.00;;;30.85;97561.76;;;;119107;1189;24823;-61
2022/08/12 18:12:43;;;;;;;;;15.00;12.75;;;30.83;97563.11;;;;119113;1190;24822;-60
2022/08/12 18:15:18;;;;;;;;;10.00;10.00;;;30.84;97564.37;;;;119081;1188;25734;-66
2022/08/12 18:18:07;;;;;;;;;11.75;9.75;;;30.88;97562.05;;;;119115;1189;25338;-66
2022/08/12 18:20:45;;;;;;;;;14.00;12.00;;;30.87;97565.67;;;;119099;1190;25095;-66
2022/08/12 18:23:13;;;;;;;;;12.00;9.25;;;30.83;97568.38;;;;119112;1188;25384;-65
2022/08/12 18:28:44;;;;;;;;;17.33;11.67;;;30.84;97571.73;;;;119048;1189;25168;-65
2022/08/12 18:31:28;;;;;;;;;14.00;10.00;;;30.78;97570.04;;;;119085;1188;25171;-65
2022/08/12 18:34:14;;;;;;;;;11.75;10.25;;;30.79;97572.86;;;;119155;1189;24838;-67
2022/08/12 18:36:44;;;;;;;;;10.25;7.25;;;30.68;97574.33;;;;119082;1189;25549;-66
2022/08/12 18:39:20;;;;;;;;;13.50;11.50;;;30.63;97578.55;;;;119072;1189;25540;-66
2022/08/12 18:41:50;;;;;;;;;13.00;9.75;;;30.51;97577.37;;;;119179;1188;26220;-63
2022/08/12 18:44:21;;;;;;;;;11.50;9.25;;;30.49;97578.74;;;;119176;1188;24953;-63
2022/08/12 18:46:54;;;;;;;;;15.25;11.50;;;30.51;97581.77;;;;119135;1187;24936;-69
2022/08/12 18:49:25;;;;;;;;;13.75;10.75;;;30.45;97586.27;;;;119010;1189;25510;-67
2022/08/12 18:52:07;;;;;;;;;10.75;9.25;;;30.32;97591.41;;;;118967;1190;25342;-69
2022/08/12 18:54:42;;;;;;;;;10.00;9.50;;;30.21;97595.73;;;;119028;1188;24894;-66
2022/08/12 18:57:25;;;;;;;;;15.00;11.00;;;30.14;97598.30;;;;119013;1189;25606;-71
2022/08/12 19:00:18;;;;;;;;;13.25;9.50;;;30.12;97603.13;;;;119086;1189;25450;-71
2022/08/12 19:02:51;;;;;;;;;11.25;11.25;;;30.09;97602.93;;;;119059;1188;25109;-68
2022/08/12 19:05:23;;;;;;;;;16.67;11.67;;;30.09;97604.77;;;;119038;1190;25678;-69
2022/08/12 19:08:12;;;;;;;;;11.50;11.00;;;30.28;97606.05;;;;119153;1188;25198;-68
2022/08/12 19:10:41;;;;;;;;;11.00;11.00;;;30.45;97604.09;;;;119020;1188;25710;-63
2022/08/12 19:16:11;;;;;;;;;12.33;10.33;;;30.36;97602.52;;;;119171;1187;25102;-72
2022/08/12 19:18:41;;;;;;;;;10.50;10.50;;;30.31;97601.57;;;;118998;1189;25429;-66
2022/08/12 19:21:12;;;;;;;;;9.75;9.00;;;30.18;97599.34;;;;119124;1187;25079;-64
2022/08/12 19:25:20;;;;;;;;;14.33;10.00;;;30.03;97601.05;;;;119106;1188;25647;-64
2022/08/12 19:26:34;;;;;;;;;11.50;11.00;;;29.96;97601.10;;;;119093;1188;25506;-65
2022/08/12 19:29:03;;;;;;;;;10.25;9.00;;;29.87;97601.15;;;;119026;1189;25581;-65
2022/08/12 19:31:45;;;;;;;;;13.25;10.50;;;29.75;97600.73;;;;119069;1188;24947;-66
2022/08/12 19:34:29;;;;;;;;;10.50;10.50;;;29.75;97599.40;;;;119015;1189;25187;-65
2022/08/12 19:37:27;;;;;;;;;9.50;9.50;;;29.75;97599.98;;;;119068;1188;25886;-63
2022/08/12 19:40:16;;;;;;;;;12.50;11.00;;;29.76;97600.30;;;;119083;1188;24881;-64
2022/08/12 19:43:11;;;;;;;;;12.67;11.00;;;29.70;97594.78;;;;119030;1189;25067;-65
2022/08/12 19:45:53;;;;;;;;;17.00;10.25;;;29.63;97593.64;;;;119037;1189;25715;-66
2022/08/12 19:48:30;;;;;;;;;13.50;11.25;;;29.57;97592.41;;;;119013;1189;26377;-64
2022/08/12 19:51:00;;;;;;;;;11.50;9.25;;;29.53;97591.19;;;;119105;1188;25970;-63
2022/08/12 19:53:53;;;;;;;;;11.50;11.50;;;29.53;97587.86;;;;119145;1189;25734;-63
2022/08/12 19:56:26;;;;;;;;;11.00;11.00;;;29.52;97587.13;;;;119019;1189;25762;-64
2022/08/12 19:59:34;;;;;;;;;11.25;10.25;;;29.47;97587.33;;;;119161;1187;26400;-66
2022/08/12 20:01:48;;;;;;;;;13.00;9.25;;;29.48;97589.78;;;;119143;1189;24892;-64
2022/08/12 20:04:36;;;;;;;;;13.50;11.25;;;29.48;97588.66;;;;119145;1187;25642;-63
2022/08/12 20:07:08;;;;;;;;;11.00;11.00;;;29.43;97585.31;;;;119163;1189;25105;-63
2022/08/12 20:09:52;;;;;;;;;11.50;11.25;;;29.42;97579.83;;;;119131;1188;25398;-63
2022/08/12 20:12:21;;;;;;;;;10.00;10.00;;;29.36;97582.04;;;;119158;1187;25242;-62
2022/08/12 20:15:00;;;;;;;;;11.67;10.67;;;29.32;97583.81;;;;119028;1189;26457;-63
2022/08/12 20:17:32;;;;;;;;;14.50;14.50;;;29.30;97585.61;;;;119139;1188;24757;-63
2022/08/12 20:20:19;;;;;;;;;15.50;11.50;;;29.29;97585.94;;;;119046;1187;26167;-63
2022/08/12 20:22:56;;;;;;;;;12.00;11.50;;;29.29;97582.05;;;;119027;1188;25806;-63
2022/08/12 20:25:25;;;;;;;;;11.25;10.50;;;29.25;97577.54;;;;119145;1187;25121;-63
2022/08/12 20:28:13;;;;;;;;;10.25;10.25;;;29.24;97571.43;;;;119153;1189;25810;-63
2022/08/12 20:30:41;;;;;;;;;12.00;11.75;;;29.24;97570.59;;;;119041;1190;25112;-63
2022/08/12 20:33:27;;;;;;;;;12.00;11.50;;;29.19;97568.72;;;;119032;1189;24965;-66
2022/08/12 20:36:16;;;;;;;;;7.00;7.00;;;29.23;97564.00;;;;119041;1189;25572;-64
2022/08/12 20:39:04;;;;;;;;;15.25;10.25;;;29.25;97561.91;;;;119149;1187;25485;-64
2022/08/12 20:41:57;;;;;;;;;15.75;12.75;;;29.24;97558.15;;;;119122;1187;25680;-63
2022/08/12 20:44:26;;;;;;;;;11.00;9.33;;;29.22;97560.49;;;;119121;1188;25576;-64
2022/08/12 20:47:05;;;;;;;;;9.75;9.75;;;29.19;97565.61;;;;119111;1188;25514;-67
2022/08/12 20:49:48;;;;;;;;;12.33;11.33;;;29.22;97569.33;;;;119136;1188;25332;-62
2022/08/12 20:52:26;;;;;;;;;9.25;8.75;;;29.21;97575.59;;;;119023;1190;26920;-62
2022/08/12 20:55:08;;;;;;;;;11.25;10.25;;;29.17;97579.58;;;;119045;1187;25536;-62
2022/08/12 20:57:46;;;;;;;;;12.00;11.00;;;29.14;97579.39;;;;119137;1188;25126;-62
2022/08/12 21:00:31;;;;;;;;;8.50;7.25;;;29.12;97580.42;;;;119118;1188;25798;-64
2022/08/12 21:06:55;;;;;;;;;11.00;8.75;;;29.09;97579.01;;;;119017;1189;25658;-63
2022/08/12 21:08:42;;;;;;;;;8.50;8.50;;;29.08;97575.89;;;;119143;1187;26279;-66
2022/08/12 21:11:10;;;;;;;;;9.67;9.67;;;29.00;97574.86;;;;119139;1188;24886;-63
2022/08/12 21:13:39;;;;;;;;;10.75;8.75;;;28.94;97577.42;;;;119146;1189;25732;-65
2022/08/12 21:16:09;;;;;;;;;7.33;6.67;;;28.91;97577.14;;;;119145;1188;24900;-63
2022/08/12 21:18:38;;;;;;;;;9.25;8.00;;;28.87;97579.63;;;;119162;1188;25457;-64
2022/08/12 21:21:06;;;;;;;;;8.50;8.50;;;28.83;97580.56;;;;119165;1187;24901;-63
2022/08/12 21:23:54;;;;;;;;;7.67;5.67;;;28.85;97580.03;;;;119187;1187;25818;-63
2022/08/12 21:26:27;;;;;;;;;8.75;8.75;;;28.85;97586.71;;;;119185;1188;25270;-64
2022/08/12 21:28:56;;;;;;;;;10.75;10.00;;;28.80;97591.50;;;;119184;1188;25371;-63
2022/08/12 21:31:30;;;;;;;;;10.00;10.00;;;28.76;97590.81;;;;119165;1188;25179;-64
2022/08/12 21:34:18;;;;;;;;;14.00;9.75;;;28.79;97590.48;;;;119171;1187;25460;-63
2022/08/12 21:36:52;;;;;;;;;10.25;9.50;;;28.82;97590.97;;;;118963;1189;24888;-63
2022/08/12 21:39:23;;;;;;;;;8.50;8.00;;;28.80;97587.74;;;;119153;1188;24908;-62
2022/08/12 21:42:05;;;;;;;;;10.00;9.33;;;28.79;97585.52;;;;119168;1189;25764;-62
2022/08/12 21:44:36;;;;;;;;;13.25;12.00;;;28.79;97587.63;;;;119158;1187;25427;-63
2022/08/12 21:47:24;;;;;;;;;8.00;8.00;;;28.85;97591.88;;;;119122;1188;25674;-63
2022/08/12 21:49:55;;;;;;;;;9.75;9.50;;;28.87;97592.27;;;;119154;1188;24731;-63
2022/08/12 21:52:36;;;;;;;;;8.25;8.00;;;28.85;97591.44;;;;119141;1188;24958;-64
2022/08/12 21:55:11;;;;;;;;;8.25;7.50;;;28.85;97589.33;;;;119118;1187;26529;-64
2022/08/12 21:57:50;;;;;;;;;9.00;7.67;;;28.86;97592.66;;;;119109;1187;25323;-64
2022/08/12 22:00:32;;;;;;;;;10.50;9.25;;;28.90;97591.70;;;;119027;1189;25179;-64
2022/08/12 22:06:18;;;;;;;;;11.25;10.50;;;28.92;97594.23;;;;119127;1188;25044;-62
2022/08/12 22:09:10;;;;;;;;;9.00;7.25;;;28.94;97592.23;;;;119110;1189;25272;-62
2022/08/12 22:11:45;;;;;;;;;7.33;7.33;;;28.91;97593.68;;;;119122;1188;26172;-66
2022/08/12 22:14:27;;;;;;;;;4.00;4.00;;;28.91;97587.41;;;;119017;1190;25581;-64
2022/08/12 22:16:56;;;;;;;;;9.00;5.67;;;28.86;97588.12;;;;119045;1190;25501;-64
2022/08/12 22:19:24;;;;;;;;;8.50;7.75;;;28.82;97584.62;;;;119110;1187;25546;-62
2022/08/12 22:21:54;;;;;;;;;10.00;8.00;;;28.78;97583.79;;;;119120;1189;25197;-63
2022/08/12 22:24:25;;;;;;;;;9.50;7.50;;;28.78;97586.35;;;;119064;1189;25312;-62
2022/08/12 22:27:02;;;;;;;;;9.00;9.00;;;28.77;97582.27;;;;119042;1188;25357;-63
2022/08/12 22:32:49;;;;;;;;;9.00;8.50;;;28.82;97581.65;;;;118971;1190;25600;-64
2022/08/12 22:35:30;;;;;;;;;6.75;6.00;;;28.77;97579.03;;;;119028;1190;24871;-66
2022/08/12 22:38:22;;;;;;;;;9.00;7.50;;;28.77;97575.16;;;;119027;1190;25820;-64
2022/08/12 22:41:05;;;;;;;;;9.75;8.50;;;28.74;97569.27;;;;119030;1189;25395;-68
2022/08/12 22:49:29;;;;;;;;;8.75;6.25;;;28.63;97570.38;;;;119045;1190;24863;-65
2022/08/12 22:52:17;;;;;;;;;11.25;10.00;;;28.67;97567.81;;;;119082;1190;25595;-61
2022/08/12 22:54:50;;;;;;;;;10.25;8.75;;;28.75;97563.23;;;;119407;1190;25428;-64
2022/08/12 22:57:32;;;;;;;;;8.50;8.00;;;29.21;97570.44;;;;119031;1189;25129;-65
2022/08/12 23:00:20;;;;;;;;;12.33;9.33;;;29.08;97569.81;;;;119033;1190;26309;-67
2022/08/12 23:02:57;;;;;;;;;10.75;8.75;;;28.92;97565.45;;;;119037;1190;25160;-62
2022/08/12 23:05:33;;;;;;;;;9.75;8.50;;;28.79;97563.66;;;;119032;1190;25082;-61
2022/08/12 23:08:23;;;;;;;;;12.00;8.50;;;28.73;97556.65;;;;119024;1190;25355;-61
2022/08/12 23:10:59;;;;;;;;;9.00;9.00;;;28.68;97555.33;;;;119064;1190;24943;-61
2022/08/12 23:13:46;;;;;;;;;9.25;8.25;;;28.66;97556.89;;;;119185;1188;25361;-61
2022/08/12 23:16:19;;;;;;;;;10.50;8.00;;;28.87;97557.09;;;;119414;1189;25279;-61
2022/08/12 23:19:14;;;;;;;;;6.00;6.00;;;29.32;97557.56;;;;119450;1189;25209;-62
2022/08/12 23:21:55;;;;;;;;;10.25;8.00;;;29.69;97558.53;;;;119383;1188;25657;-62
2022/08/12 23:24:46;;;;;;;;;8.75;8.50;;;29.99;97559.73;;;;119416;1189;25452;-62
2022/08/12 23:30:25;;;;;;;;;9.50;8.50;;;29.82;97560.05;;;;119027;1190;25305;-61
2022/08/12 23:33:03;;;;;;;;;11.00;11.00;;;29.40;97557.66;;;;119066;1190;25066;-63
2022/08/12 23:35:48;;;;;;;;;5.25;5.25;;;29.17;97552.71;;;;119047;1190;25141;-65
2022/08/12 23:38:34;;;;;;;;;8.75;8.50;;;29.01;97546.77;;;;119044;1190;24753;-65
2022/08/12 23:41:04;;;;;;;;;12.50;10.25;;;28.87;97538.45;;;;119014;1190;25436;-64
2022/08/12 23:43:36;;;;;;;;;8.25;8.25;;;28.75;97533.66;;;;119080;1189;25323;-64
2022/08/12 23:46:09;;;;;;;;;9.33;8.00;;;28.67;97533.02;;;;118955;1190;24975;-61
2022/08/12 23:48:37;;;;;;;;;9.00;7.50;;;28.59;97528.28;;;;119049;1188;25501;-61
2022/08/12 23:51:09;;;;;;;;;7.25;6.75;;;28.54;97525.20;;;;119005;1189;24886;-61
2022/08/12 23:53:53;;;;;;;;;11.00;9.00;;;28.54;97523.23;;;;119034;1189;25425;-61
2022/08/12 23:56:23;;;;;;;;;9.00;8.75;;;28.50;97519.91;;;;119064;1189;25035;-61
2022/08/12 23:58:53;;;;;;;;;8.75;8.00;;;28.43;97518.42;;;;119096;1188;25431;-61
